aviador You're here:

PHHI Decoded Metar

WHEELER AFB. in HI, USA OAHU ISL.
Report Time2017-06-27 04:58:00
UTC Time2017-06-27 05:24:58
Flight Rules vfr VFR
Wind090° at 11 kt
W.Decomp.*RWY 06: 10.4 kt HW 3.6 kt RCW
W.Rank090° ranks 4
Current wind is above 090° avg. (8.3)
Visibility9656 m
Phenomena:Haze
Clouds:N/A
Expected CloudBase > 2,800 ft AGL from Temp-Dew spread
CeilingNone
Temp26°C (ISA +13)
Dew Point19°C (65% RH)
AAT25.2°C
QNH1018 hPa
Density Alt2,425 ft
Elevation837 ft
Report Wrong Elevation
Raw Report
PHHI 270458Z AUTO 09011KT 6SM HZ CLR 26/19 A3005 RMK AO2 SLP165
T02560193 $=

Extra information for PHHI:More info

Metar Taf Metar & Taf Last 4 Metars F.Rules Stats Wind Profile Meteogram Temp Stats Airport Information Weather charts Add Link Nearby VenuesMetar ALERT Operation Metar Decoded Social comments